View Sortable Currents For Network
ASOSAWOSCoCoRaHSCOOPDCPISUSM
SchoolNetOtherSCANMy FavoritesBy StateRWIS
RWIS SurfaceRWIS TrafficRWIS SoilBy NWS WFOUSCRN

Current SCAN Conditions

Sorted by: (Observation Time [local])     Click on a column to sort it.
ADD: Station: Ob Time Temps °F   Wind [knots]  
Air (Hi / Lo) DewP Feels RH% Speed Direction Gust @Time Solar Rad
Mt VernonOct-22-18 10:00 AM 58(58/39) 44 58 61 000
Rodgers FarmOct-23-18 05:00 AM 31(35/31) 31 31 101 000
SpickardOct-23-18 05:00 AM 40(48/40) 33 40 77 000
SHAGBARK HILLSOct-23-18 05:00 AM 31(39/31) 26 31 81 000
Crescent Lake No1Oct-23-18 05:00 AM 29(35/29) 25 29 86 000
AmesOct-23-18 05:00 AM 29(42/29) 28 29 94 000
Powell GardensOct-23-18 05:00 AM 50(53/48) 45 50 83 000
MasonOct-23-18 05:00 AM 40(45/40) 32 40 71 000
Mark Twain HS06:00 AM 40(45/40) 35 40 82 000
Schell-Osage06:00 AM 42(48/42) 42 42 99 000
Shaw Nature Reserve06:00 AM 37(45/37) 37 37 101 000
Elsberry PMC06:00 AM 39(45/39) 39 39 98 000
Platteville06:00 AM 33(44/33) 30 33 86 000
Dexter06:00 AM 45(47/43) 42 45 87 000
Journagan Ranch06:00 AM 37(40/37) 37 37 101 000
Twin Pines Conservation06:00 AM 42(42/40) 40 42 93 000
Busby Farm06:00 AM 38(44/38) 38 38 102 000
CMRB LTAR06:00 AM 42(45/40) 33 42 69 000
Carver Farm06:00 AM 38(43/38) 38 38 97 000


SCAN Soil Conditions

  2 inch 4 inch 8 inch 20 inch 40 inch
Station: Ob Time: Moist:Temp: Moist:Temp: Moist:Temp: Moist:Temp: Moist:Temp:
Mt VernonOct-22-18 10:00 AM 290 190 260 410 00
Rodgers FarmOct-23-18 05:00 AM 350 420 440 540 -1000
SpickardOct-23-18 05:00 AM 00 270 410 410 520
SHAGBARK HILLSOct-23-18 05:00 AM 390 350 370 370 420
Crescent Lake No1Oct-23-18 05:00 AM 90 150 180 100 80
AmesOct-23-18 05:00 AM 360 440 450 540 560
Powell GardensOct-23-18 05:00 AM 320 290 330 260 400
MasonOct-23-18 05:00 AM 90 80 110 160 280
Mark Twain HS06:00 AM 310 330 330 520 550
Schell-Osage06:00 AM -1000 -1000 -1000 -1000 -1000
Shaw Nature Reserve06:00 AM 170 270 270 310 340
Elsberry PMC06:00 AM 310 300 340 240 360
Platteville06:00 AM 280 310 360 420 520
Dexter06:00 AM 280 270 280 300 310
Journagan Ranch06:00 AM 210 110 310 410 480
Twin Pines Conservation06:00 AM 180 210 220 130 200
Busby Farm06:00 AM 290 300 300 420 450
CMRB LTAR06:00 AM 360 320 330 530 490
Carver Farm06:00 AM 210 320 310 300 590